Wetterstation Vordersexau
Wetterdaten: April 2014
Datum Temp. A. Feuchte A. Luftdruck Regen Wind Richtung Taupunkt Windchill Windben
01.04.2014 15,7 C 60 % 982,7 hPa 0,0 l/m 1,5 km/h O-SO 7,1 C 15,6 C 0,9 km/h
02.04.2014 16,3 C 59 % 978,8 hPa 0,0 l/m 0,7 km/h O-SO 7,1 C 16,3 C 0,5 km/h
03.04.2014 14,2 C 67 % 975,3 hPa 0,0 l/m 0,1 km/h O-SO 8,0 C 14,2 C 0,1 km/h
04.04.2014 12,5 C 74 % 976,9 hPa 0,0 l/m 0,2 km/h O-SO 7,9 C 12,5 C 0,1 km/h
05.04.2014 10,9 C 82 % 985,3 hPa 0,0 l/m 0,0 km/h W 7,9 C 10,9 C 0,0 km/h
06.04.2014 16,5 C 65 % 990,2 hPa 0,0 l/m 0,8 km/h N-NO 9,1 C 16,5 C 0,5 km/h
07.04.2014 16,2 C 65 % 988,0 hPa 0,0 l/m 0,1 km/h SO 8,7 C 16,2 C 0,1 km/h
08.04.2014 14,1 C 65 % 989,5 hPa 0,3 l/m 7,3 km/h W-NW 7,2 C 12,7 C 4,1 km/h
09.04.2014 12,9 C 55 % 996,3 hPa 0,0 l/m 2,8 km/h O-SO 2,9 C 12,6 C 1,6 km/h
10.04.2014 13,4 C 59 % 992,1 hPa 0,0 l/m 1,8 km/h SO 4,3 C 13,3 C 1,0 km/h
11.04.2014 15,4 C 59 % 986,5 hPa 0,0 l/m 2,2 km/h N-NO 6,2 C 15,3 C 1,2 km/h
12.04.2014 17,0 C 58 % 986,3 hPa 0,0 l/m 1,1 km/h NO 7,8 C 16,9 C 0,6 km/h
13.04.2014 16,1 C 56 % 989,7 hPa 0,0 l/m 0,9 km/h O-SO 6,2 C 16,1 C 0,5 km/h
14.04.2014 11,5 C 61 % 990,2 hPa 0,0 l/m 4,6 km/h NW 3,3 C 10,7 C 2,6 km/h
15.04.2014 8,3 C 54 % 994,8 hPa 0,0 l/m 3,6 km/h N-NO -1,2 C 7,5 C 2,0 km/h
16.04.2014 9,8 C 51 % 996,7 hPa 0,0 l/m 1,8 km/h O-SO -1,2 C 9,6 C 1,0 km/h
17.04.2014 11,4 C 51 % 991,3 hPa 0,0 l/m 1,0 km/h O-SO -0,1 C 11,3 C 0,6 km/h
18.04.2014 7,2 C 74 % 983,7 hPa 0,3 l/m 1,0 km/h N-NO 2,7 C 6,9 C 0,5 km/h
19.04.2014 6,3 C 78 % 981,5 hPa 0,0 l/m 1,2 km/h N-NO 2,7 C 6,0 C 0,7 km/h
20.04.2014 13,8 C 67 % 976,2 hPa 0,0 l/m 1,0 km/h SO 6,8 C 13,8 C 0,6 km/h
21.04.2014 11,0 C 78 % 975,5 hPa 0,0 l/m 2,1 km/h O-NO 7,3 C 10,7 C 1,2 km/h
22.04.2014 16,1 C 63 % 982,2 hPa 0,2 l/m 2,9 km/h O-SO 8,3 C 15,7 C 1,6 km/h
23.04.2014 16,1 C 64 % 988,5 hPa 0,0 l/m 1,4 km/h SO 8,6 C 16,0 C 0,8 km/h
24.04.2014 18,1 C 61 % 986,7 hPa 0,0 l/m 0,2 km/h SO 9,5 C 18,1 C 0,2 km/h
25.04.2014 17,4 C 61 % 981,3 hPa 3,0 l/m 3,3 km/h O-SO 8,8 C 17,1 C 1,9 km/h
26.04.2014 15,8 C 73 % 982,4 hPa 4,5 l/m 0,4 km/h W 10,8 C 15,8 C 0,2 km/h
27.04.2014 12,5 C 73 % 980,0 hPa 6,1 l/m 3,1 km/h SW 7,7 C 12,0 C 2,1 km/h
28.04.2014 11,3 C 80 % 981,4 hPa 1,1 l/m 0,7 km/h SO 7,8 C 11,3 C 0,4 km/h
29.04.2014 12,4 C 78 % 983,6 hPa 0,5 l/m 0,1 km/h W 8,6 C 12,4 C 0,1 km/h
30.04.2014 11,0 C 80 % 981,7 hPa 1,1 l/m 1,6 km/h O-SO 7,7 C 10,6 C 0,9 km/h
Min-Datum 16.04.14 17.04.14 20.04.14 9 Tage 01.04.14 - 16.04.14 16.04.14 01.04.14
Min-Zeit 06:19 18:19 18:19 - 00:19 - 06:19 06:19 00:19
Minimum -2,2 C 23 % 973,9 hPa - 0,0 km/h - -5,2 C -2,2 C 0,0 km/h
Max-Datum 07.04.14 19.04.14 09.04.14 27.04.14 09.04.14 - 26.04.14 07.04.14 09.04.14
Max-Zeit 18:19 03:19 10:19 00:19 14:19 - 12:19 18:19 14:19
Maximum 32,3 C 85 % 997,9 hPa 6,1 l/m 50,5 km/h
O-SO
- 15,2 C 32,3 C 28,1 km/h
O-SO
Durchschnitt 13,4 C 66 % 985,2 hPa #16,9 l/m 1,7 km/h SO 6,3 C 13,2 C 1,0 km/h

Durchschnitt Minimum Temp.5,7 C
Durchschnitt Maximum Temp.23,5 C
www.sexauwetter.de